Time;durP1;ratioP1;P1;durP2;ratioP2;P2;SDS_P1;SDS_P2;PMS_P1;PMS_P2;Temp;Humidity;BMP_temperature;BMP_pressure;BME280_temperature;BME280_humidity;BME280_pressure;Samples;Min_cycle;Max_cycle;Signal;HPM_P1;HPM_P2
2022/10/29 00:00:48;;;;;;;44.72;32.95;;;12.00;99.90;;;;;;5051583;28;20387;-73
2022/10/29 00:03:13;;;;;;;47.83;33.85;;;12.00;99.90;;;;;;5051550;28;20052;-72
2022/10/29 00:05:39;;;;;;;50.50;34.90;;;11.80;99.90;;;;;;5051317;28;20063;-71
2022/10/29 00:08:05;;;;;;;50.28;31.65;;;11.80;99.90;;;;;;5051438;28;20063;-71
2022/10/29 00:10:31;;;;;;;45.83;32.95;;;11.80;99.90;;;;;;5051166;28;20057;-72
2022/10/29 00:13:01;;;;;;;50.88;36.03;;;11.80;99.90;;;;;;5051463;28;20044;-72
2022/10/29 00:15:27;;;;;;;64.25;42.05;;;11.90;99.90;;;;;;5051577;28;20120;-72
2022/10/29 00:17:52;;;;;;;54.45;37.75;;;11.90;99.90;;;;;;5050141;28;20033;-70
2022/10/29 00:20:19;;;;;;;57.38;36.28;;;12.00;99.90;;;;;;5051254;28;20036;-71
2022/10/29 00:22:45;;;;;;;61.45;38.05;;;12.00;99.90;;;;;;5051241;28;20104;-71
2022/10/29 00:25:11;;;;;;;54.05;35.80;;;12.00;99.90;;;;;;5051536;28;20029;-72
2022/10/29 00:27:37;;;;;;;60.10;37.20;;;12.00;99.90;;;;;;5051520;28;20187;-72
2022/10/29 00:30:03;;;;;;;56.47;36.50;;;12.00;99.90;;;;;;5036865;28;20093;-71
2022/10/29 00:32:29;;;;;;;53.45;37.58;;;12.00;99.90;;;;;;5051153;28;20040;-71
2022/10/29 00:34:55;;;;;;;50.20;35.10;;;12.00;99.90;;;;;;5051089;28;20391;-72
2022/10/29 00:37:21;;;;;;;60.72;38.00;;;12.10;99.90;;;;;;5040525;28;20029;-74
2022/10/29 00:39:46;;;;;;;62.78;37.20;;;12.00;99.90;;;;;;5034420;28;20122;-72
2022/10/29 00:42:16;;;;;;;69.57;38.88;;;11.80;99.90;;;;;;5051367;28;20033;-72
2022/10/29 00:44:42;;;;;;;63.65;39.75;;;11.70;99.90;;;;;;5040698;28;20059;-72
2022/10/29 00:47:30;;;;;;;65.97;39.90;;;11.60;99.90;;;;;;5040264;28;20025;-71
2022/10/29 00:50:01;;;;;;;61.40;39.50;;;11.60;99.90;;;;;;5039453;28;20049;-73
2022/10/29 00:52:31;;;;;;;62.70;39.25;;;11.60;99.90;;;;;;5046426;28;20465;-71
2022/10/29 00:55:01;;;;;;;59.60;37.03;;;11.60;99.90;;;;;;5039160;28;20035;-72
2022/10/29 00:57:33;;;;;;;51.45;33.13;;;11.60;99.90;;;;;;5035141;28;20036;-71
2022/10/29 00:59:59;;;;;;;60.75;36.28;;;11.60;99.90;;;;;;5040598;28;20481;-71
2022/10/29 01:02:25;;;;;;;52.13;31.60;;;11.60;99.90;;;;;;5039821;28;20036;-74
2022/10/29 01:04:52;;;;;;;44.75;30.77;;;11.50;99.90;;;;;;5043961;28;20021;-72
2022/10/29 01:07:21;;;;;;;44.33;30.52;;;11.40;99.90;;;;;;5048698;28;20017;-72
2022/10/29 01:09:47;;;;;;;84.20;35.72;;;11.40;99.90;;;;;;5032098;28;20451;-72
2022/10/29 01:12:41;;;;;;;57.83;31.00;;;11.30;99.90;;;;;;5038205;28;20087;-71
2022/10/29 01:15:09;;;;;;;50.95;31.83;;;11.30;99.90;;;;;;5050425;28;20041;-72
2022/10/29 01:17:54;;;;;;;123.80;38.78;;;11.30;99.90;;;;;;5041158;28;20017;-72
2022/10/29 01:20:35;;;;;;;192.65;50.85;;;10.80;99.90;;;;;;5049091;28;20041;-71
2022/10/29 01:23:38;;;;;;;62.35;32.67;;;10.60;99.90;;;;;;5050692;28;20083;-72
2022/10/29 01:26:40;;;;;;;65.93;35.47;;;10.60;99.90;;;;;;5031246;28;20432;-70
2022/10/29 01:29:20;;;;;;;130.63;43.08;;;10.50;99.90;;;;;;5024762;28;20488;-72
2022/10/29 01:32:15;;;;;;;279.65;80.88;;;10.40;99.90;;;;;;5022348;28;20017;-71
2022/10/29 01:35:00;;;;;;;242.18;61.67;;;10.30;99.90;;;;;;5012432;28;20099;-73
2022/10/29 01:37:43;;;;;;;163.23;44.90;;;10.30;99.90;;;;;;5013124;28;20105;-71
2022/10/29 01:40:44;;;;;;;124.78;49.10;;;10.30;99.90;;;;;;5009590;28;20053;-72
2022/10/29 01:43:21;;;;;;;85.13;48.20;;;10.40;99.90;;;;;;5009666;28;20021;-71
2022/10/29 01:46:11;;;;;;;96.10;46.15;;;10.50;99.90;;;;;;5010878;28;20148;-72
2022/10/29 01:48:46;;;;;;;101.18;46.17;;;10.50;99.90;;;;;;5010343;28;20026;-73
2022/10/29 01:51:22;;;;;;;183.43;62.22;;;10.40;99.90;;;;;;5010143;28;20421;-72
2022/10/29 01:53:49;;;;;;;182.80;64.55;;;10.30;99.90;;;;;;5013983;28;20116;-74
2022/10/29 01:56:16;;;;;;;282.15;85.25;;;10.40;99.90;;;;;;5016294;28;20083;-73
2022/10/29 01:58:48;;;;;;;246.57;77.88;;;10.40;99.90;;;;;;5016744;28;20447;-72
2022/10/29 02:01:33;;;;;;;137.38;56.40;;;10.30;99.90;;;;;;5011949;28;20037;-71
2022/10/29 02:04:33;;;;;;;142.95;55.22;;;10.40;99.90;;;;;;5008667;28;20022;-71
2022/10/29 02:07:40;;;;;;;164.82;58.55;;;10.40;99.90;;;;;;5013302;28;20087;-72
2022/10/29 02:10:26;;;;;;;117.22;50.85;;;10.40;99.90;;;;;;4974507;28;20066;-74
2022/10/29 02:12:53;;;;;;;165.45;58.55;;;10.50;99.90;;;;;;4971892;28;20117;-75
2022/10/29 02:15:47;;;;;;;187.43;67.50;;;10.50;99.90;;;;;;4973040;28;20037;-77
2022/10/29 02:18:16;;;;;;;322.52;85.43;;;10.50;99.90;;;;;;4937308;28;20036;-73
2022/10/29 02:20:45;;;;;;;182.60;66.03;;;10.40;99.90;;;;;;4933741;29;20080;-75
2022/10/29 02:23:15;;;;;;;301.20;84.95;;;10.40;99.90;;;;;;4933226;29;20131;-71
2022/10/29 02:25:42;;;;;;;286.20;81.72;;;10.30;99.90;;;;;;4934502;29;20531;-77
2022/10/29 02:28:08;;;;;;;86.35;45.15;;;10.20;99.90;;;;;;4933956;29;20126;-72
2022/10/29 02:30:34;;;;;;;118.88;47.20;;;10.30;99.90;;;;;;4932712;29;20051;-72
2022/10/29 02:33:00;;;;;;;154.80;59.72;;;10.20;99.90;;;;;;4936415;29;20047;-71
2022/10/29 02:35:26;;;;;;;176.25;64.65;;;10.20;99.90;;;;;;4936090;29;20799;-71
2022/10/29 02:37:51;;;;;;;83.82;44.95;;;10.20;99.90;;;;;;4935186;29;20099;-76
2022/10/29 02:40:17;;;;;;;222.48;70.85;;;10.20;99.90;;;;;;4931832;29;20055;-71
2022/10/29 02:42:43;;;;;;;107.45;47.45;;;10.20;99.90;;;;;;4932189;29;20048;-71
2022/10/29 02:45:09;;;;;;;105.97;45.25;;;10.20;99.90;;;;;;4937542;29;20059;-74
2022/10/29 02:47:38;;;;;;;287.20;77.03;;;10.40;99.90;;;;;;4953976;28;20042;-77
2022/10/29 02:50:05;;;;;;;146.15;51.20;;;10.30;99.90;;;;;;4941246;28;20031;-78
2022/10/29 02:52:31;;;;;;;222.25;72.38;;;10.40;99.90;;;;;;4954033;28;20031;-78
2022/10/29 02:54:57;;;;;;;226.70;71.07;;;10.30;99.90;;;;;;4987920;28;20074;-72
2022/10/29 02:57:23;;;;;;;69.90;44.58;;;10.20;99.90;;;;;;5050335;28;20100;-74
2022/10/29 02:59:49;;;;;;;94.13;48.78;;;10.30;99.90;;;;;;5052597;28;20045;-73
2022/10/29 03:02:14;;;;;;;94.50;44.33;;;10.40;99.90;;;;;;5052522;28;20017;-72
2022/10/29 03:04:40;;;;;;;158.68;53.67;;;10.30;99.90;;;;;;5052726;28;20065;-73
2022/10/29 03:07:09;;;;;;;139.40;47.40;;;10.20;99.90;;;;;;5037313;28;20017;-78
2022/10/29 03:09:44;;;;;;;125.03;48.67;;;10.10;99.90;;;;;;5033044;28;20125;-79
2022/10/29 03:12:13;;;;;;;105.03;45.85;;;10.00;99.90;;;;;;5036116;28;20061;-79
2022/10/29 03:14:39;;;;;;;218.98;65.97;;;10.00;99.90;;;;;;5049277;28;20029;-73
2022/10/29 03:17:04;;;;;;;102.47;42.55;;;9.90;99.90;;;;;;5045787;28;20047;-72
2022/10/29 03:19:30;;;;;;;120.25;43.25;;;10.00;99.90;;;;;;5052057;28;20037;-73
2022/10/29 03:21:56;;;;;;;173.60;56.20;;;10.10;99.90;;;;;;5046003;28;20101;-72
2022/10/29 03:24:22;;;;;;;213.15;60.45;;;9.90;99.90;;;;;;5044959;28;20487;-72
2022/10/29 03:26:47;;;;;;;107.40;45.50;;;9.90;99.90;;;;;;5038370;28;20017;-73
2022/10/29 03:29:13;;;;;;;92.15;41.92;;;10.00;99.90;;;;;;5042139;28;20164;-73
2022/10/29 03:31:39;;;;;;;99.78;41.15;;;10.00;99.90;;;;;;5048548;28;20548;-73
2022/10/29 03:34:05;;;;;;;88.53;40.92;;;10.00;99.90;;;;;;5052144;28;20043;-74
2022/10/29 03:36:31;;;;;;;279.02;69.97;;;10.00;99.90;;;;;;5048503;28;20501;-73
2022/10/29 03:38:56;;;;;;;112.85;47.05;;;9.80;99.90;;;;;;5041901;28;20452;-72
2022/10/29 03:41:22;;;;;;;274.33;67.22;;;9.80;99.90;;;;;;5051393;28;20048;-72
2022/10/29 03:43:48;;;;;;;240.60;71.53;;;9.70;99.90;;;;;;5051840;28;20485;-72
2022/10/29 03:46:14;;;;;;;365.63;86.07;;;9.70;99.90;;;;;;5052065;28;20537;-72
2022/10/29 03:48:40;;;;;;;195.15;61.10;;;9.70;99.90;;;;;;5051687;28;20032;-74
2022/10/29 03:51:06;;;;;;;135.00;50.05;;;9.80;99.90;;;;;;5052019;28;20028;-75
2022/10/29 03:53:34;;;;;;;100.43;39.95;;;9.80;99.90;;;;;;5051935;28;20033;-75
2022/10/29 03:56:01;;;;;;;164.55;49.92;;;9.90;99.90;;;;;;5041447;28;20026;-72
2022/10/29 03:58:27;;;;;;;93.57;41.33;;;9.90;99.90;;;;;;5048053;28;20040;-73
2022/10/29 04:01:13;;;;;;;155.93;48.92;;;10.00;99.90;;;;;;5042508;28;20037;-72
2022/10/29 04:03:41;;;;;;;96.35;46.40;;;10.00;99.90;;;;;;5045534;28;20037;-72
2022/10/29 04:06:14;;;;;;;96.13;39.22;;;10.00;99.90;;;;;;5051186;28;20100;-72
2022/10/29 04:08:40;;;;;;;77.05;34.42;;;9.80;99.90;;;;;;5051479;28;20033;-70
2022/10/29 04:11:10;;;;;;;170.50;51.15;;;9.80;99.90;;;;;;5051061;28;20109;-72
2022/10/29 04:13:35;;;;;;;96.05;38.22;;;9.70;99.90;;;;;;5051132;28;20051;-73
2022/10/29 04:16:01;;;;;;;67.55;31.92;;;9.80;99.90;;;;;;5051379;28;20025;-73
2022/10/29 04:18:27;;;;;;;74.25;32.83;;;9.80;99.90;;;;;;5051204;28;20120;-73
2022/10/29 04:20:53;;;;;;;61.55;31.15;;;9.90;99.90;;;;;;5051202;28;20082;-76
2022/10/29 04:23:19;;;;;;;52.88;29.48;;;9.90;99.90;;;;;;5051097;28;20025;-73
2022/10/29 04:25:56;;;;;;;52.47;28.20;;;10.10;99.90;;;;;;5037247;28;20049;-73
2022/10/29 04:28:21;;;;;;;47.20;29.55;;;10.10;99.90;;;;;;5050709;28;20037;-73
2022/10/29 04:30:47;;;;;;;53.97;28.35;;;10.10;99.90;;;;;;5045796;28;20021;-73
2022/10/29 04:33:13;;;;;;;41.20;26.80;;;10.20;99.90;;;;;;5042097;28;20483;-74
2022/10/29 04:35:39;;;;;;;55.90;28.10;;;10.20;99.90;;;;;;5046893;28;20021;-76
2022/10/29 04:38:11;;;;;;;71.35;32.10;;;10.20;99.90;;;;;;5033451;28;20036;-75
2022/10/29 04:40:37;;;;;;;66.78;34.80;;;10.20;99.90;;;;;;5043024;28;20049;-73
2022/10/29 04:43:03;;;;;;;55.53;32.58;;;10.10;99.90;;;;;;5022959;28;20536;-72
2022/10/29 04:45:29;;;;;;;56.50;32.63;;;10.20;99.90;;;;;;5039541;28;20029;-73
2022/10/29 04:48:00;;;;;;;53.40;30.75;;;10.20;99.90;;;;;;5050481;28;20025;-73
2022/10/29 04:50:26;;;;;;;64.65;31.90;;;10.30;99.90;;;;;;5049318;28;20033;-74
2022/10/29 04:52:52;;;;;;;51.83;30.27;;;10.30;99.90;;;;;;5029380;28;20429;-73
2022/10/29 04:55:17;;;;;;;54.63;29.48;;;10.30;99.90;;;;;;5043167;28;20112;-73
2022/10/29 04:57:48;;;;;;;63.10;29.90;;;10.30;99.90;;;;;;5043501;28;20025;-73
2022/10/29 05:00:14;;;;;;;49.25;28.08;;;10.30;99.90;;;;;;5050531;28;20387;-73
2022/10/29 05:02:40;;;;;;;48.42;27.65;;;10.30;99.90;;;;;;5036759;28;20071;-73
2022/10/29 05:05:06;;;;;;;45.40;27.35;;;10.30;99.90;;;;;;5050928;28;20752;-73
2022/10/29 05:07:32;;;;;;;51.28;28.88;;;10.30;99.90;;;;;;5048118;28;20100;-74
2022/10/29 05:09:58;;;;;;;68.70;27.77;;;10.40;99.90;;;;;;5035157;28;20136;-74
2022/10/29 05:12:24;;;;;;;51.80;27.35;;;10.40;99.90;;;;;;5030404;28;20029;-73
2022/10/29 05:14:50;;;;;;;86.82;27.75;;;10.20;99.90;;;;;;5038100;28;20138;-73
2022/10/29 05:17:15;;;;;;;70.60;25.55;;;10.20;99.90;;;;;;5047172;28;20036;-73
2022/10/29 05:19:41;;;;;;;70.43;26.90;;;10.10;99.90;;;;;;5048054;28;20073;-73
2022/10/29 05:22:07;;;;;;;70.35;27.35;;;10.20;99.90;;;;;;5041561;28;20486;-72
2022/10/29 05:24:33;;;;;;;59.03;29.20;;;10.10;99.90;;;;;;5046023;28;20064;-74
2022/10/29 05:26:58;;;;;;;63.53;30.02;;;10.10;99.90;;;;;;5050856;28;20017;-73
2022/10/29 05:29:24;;;;;;;45.03;25.95;;;10.20;99.90;;;;;;5046851;28;20059;-73
2022/10/29 05:31:53;;;;;;;45.42;26.67;;;10.30;99.90;;;;;;5036360;28;20029;-76
2022/10/29 05:34:19;;;;;;;87.45;33.55;;;10.30;99.90;;;;;;5035898;28;20053;-74
2022/10/29 05:36:45;;;;;;;132.85;37.53;;;10.20;99.90;;;;;;5042568;28;20077;-74
2022/10/29 05:39:11;;;;;;;106.25;33.40;;;10.00;99.90;;;;;;5042395;28;20037;-73
2022/10/29 05:41:37;;;;;;;57.20;26.27;;;9.90;99.90;;;;;;5040166;28;20048;-73
2022/10/29 05:44:03;;;;;;;47.42;26.05;;;10.00;99.90;;;;;;5043071;28;20021;-74
2022/10/29 05:46:28;;;;;;;55.85;27.05;;;10.10;99.90;;;;;;5054077;28;20383;-75
2022/10/29 05:48:54;;;;;;;62.63;26.80;;;10.20;99.90;;;;;;5041893;28;20067;-75
2022/10/29 05:51:20;;;;;;;51.05;25.90;;;10.10;99.90;;;;;;5037393;28;20498;-74
2022/10/29 05:53:46;;;;;;;38.72;26.20;;;10.20;99.90;;;;;;5048556;28;20530;-74
2022/10/29 05:56:12;;;;;;;62.03;27.48;;;10.20;99.90;;;;;;5045942;28;20013;-75
2022/10/29 05:58:38;;;;;;;47.03;25.27;;;10.20;99.90;;;;;;5040038;28;20032;-73
2022/10/29 06:01:09;;;;;;;57.20;25.73;;;10.40;99.90;;;;;;5051610;28;20063;-73
2022/10/29 06:03:35;;;;;;;49.88;25.95;;;10.30;99.90;;;;;;5050368;28;20032;-72
2022/10/29 06:06:01;;;;;;;55.95;24.92;;;10.30;99.90;;;;;;5040379;28;20029;-74
2022/10/29 06:08:26;;;;;;;62.20;25.20;;;10.30;99.90;;;;;;5045649;28;20541;-74
2022/10/29 06:10:52;;;;;;;44.47;25.95;;;10.20;99.90;;;;;;5046882;28;20054;-74
2022/10/29 06:13:20;;;;;;;60.80;29.52;;;10.20;99.90;;;;;;5046760;28;20079;-74
2022/10/29 06:15:47;;;;;;;53.28;26.60;;;10.30;99.90;;;;;;5053492;28;20036;-73
2022/10/29 06:18:14;;;;;;;52.42;28.23;;;10.30;99.90;;;;;;5042258;28;20033;-73
2022/10/29 06:20:42;;;;;;;66.40;28.38;;;10.40;99.90;;;;;;5038607;28;20037;-74
2022/10/29 06:23:09;;;;;;;47.33;28.23;;;10.40;99.90;;;;;;5052348;28;20032;-73
2022/10/29 06:25:35;;;;;;;68.43;28.42;;;10.50;99.90;;;;;;5052334;28;20021;-73
2022/10/29 06:28:03;;;;;;;47.05;26.63;;;10.60;99.90;;;;;;5041064;28;20029;-74
2022/10/29 06:30:31;;;;;;;59.53;29.13;;;10.60;99.90;;;;;;5047309;28;20029;-73
2022/10/29 06:32:57;;;;;;;56.17;28.25;;;10.70;99.90;;;;;;5039098;28;20111;-74
2022/10/29 06:35:23;;;;;;;66.45;28.55;;;10.80;99.90;;;;;;5042053;28;20018;-74
2022/10/29 06:37:49;;;;;;;66.78;29.50;;;10.80;99.90;;;;;;5036955;28;20033;-74
2022/10/29 06:40:14;;;;;;;78.93;34.10;;;10.90;99.90;;;;;;5039649;28;20029;-74
2022/10/29 06:42:40;;;;;;;46.05;30.10;;;10.80;99.90;;;;;;5053235;28;20052;-77
2022/10/29 06:45:07;;;;;;;47.75;26.63;;;10.90;99.90;;;;;;5034294;28;20026;-75
2022/10/29 06:47:43;;;;;;;48.55;27.60;;;10.90;99.90;;;;;;5043830;28;20040;-74
2022/10/29 06:50:11;;;;;;;96.20;29.83;;;10.80;99.90;;;;;;5042685;28;20049;-74
2022/10/29 06:52:37;;;;;;;49.90;28.15;;;10.80;99.90;;;;;;5036265;28;20029;-74
2022/10/29 06:55:04;;;;;;;84.32;35.53;;;10.90;99.90;;;;;;5032449;28;20057;-74
2022/10/29 06:57:30;;;;;;;47.05;27.48;;;10.90;99.90;;;;;;5035320;28;20128;-75
2022/10/29 06:59:56;;;;;;;52.10;30.75;;;10.90;99.90;;;;;;5032629;28;20534;-72
2022/10/29 07:02:22;;;;;;;58.95;33.20;;;11.00;99.90;;;;;;5030351;28;20383;-73
2022/10/29 07:04:48;;;;;;;53.28;30.65;;;11.00;99.90;;;;;;5032220;28;20029;-73
2022/10/29 07:07:14;;;;;;;72.50;35.08;;;11.10;99.90;;;;;;5040308;28;20564;-78
2022/10/29 07:09:41;;;;;;;74.13;35.00;;;11.10;99.90;;;;;;5030382;28;20042;-76
2022/10/29 07:12:08;;;;;;;58.72;31.00;;;11.10;99.90;;;;;;5031587;28;20661;-72
2022/10/29 07:14:34;;;;;;;69.60;35.40;;;11.10;99.90;;;;;;5031907;28;20522;-77
2022/10/29 07:17:00;;;;;;;45.72;30.65;;;11.10;99.90;;;;;;5029851;28;20064;-73
2022/10/29 07:19:26;;;;;;;47.00;30.08;;;11.20;99.90;;;;;;5029200;28;20037;-72
2022/10/29 07:21:51;;;;;;;50.35;29.90;;;11.30;99.90;;;;;;5031011;28;20025;-73
2022/10/29 07:24:17;;;;;;;53.03;31.45;;;11.40;99.90;;;;;;5031059;28;20021;-72
2022/10/29 07:26:43;;;;;;;54.47;29.88;;;11.40;99.90;;;;;;5031148;28;20030;-72
2022/10/29 07:29:09;;;;;;;54.53;30.88;;;11.40;99.90;;;;;;5030604;28;20038;-75
2022/10/29 07:31:35;;;;;;;47.25;27.08;;;11.40;99.90;;;;;;5027800;28;20068;-74
2022/10/29 07:34:01;;;;;;;44.63;28.88;;;11.40;99.90;;;;;;5016235;28;20037;-71
2022/10/29 07:36:30;;;;;;;50.30;31.30;;;11.40;99.90;;;;;;5030416;28;20025;-72
2022/10/29 07:38:55;;;;;;;42.28;27.50;;;11.30;99.90;;;;;;5030998;28;20029;-76
2022/10/29 07:41:21;;;;;;;36.53;26.17;;;11.50;99.90;;;;;;5031173;28;20045;-73
2022/10/29 07:43:47;;;;;;;46.60;29.77;;;11.60;99.90;;;;;;5030374;28;20112;-73
2022/10/29 07:46:13;;;;;;;41.90;27.05;;;11.60;99.90;;;;;;5030697;28;20022;-72
2022/10/29 07:48:39;;;;;;;45.55;29.88;;;11.70;99.90;;;;;;5031393;28;20017;-72
2022/10/29 07:51:04;;;;;;;38.65;26.52;;;11.80;99.90;;;;;;5031537;28;20025;-72
2022/10/29 07:53:31;;;;;;;44.38;28.63;;;11.80;99.90;;;;;;5030345;28;20029;-72
2022/10/29 07:55:57;;;;;;;47.10;25.73;;;11.70;99.90;;;;;;5029543;28;20029;-72
2022/10/29 07:58:24;;;;;;;38.80;26.42;;;11.60;99.90;;;;;;5030702;28;20037;-74
2022/10/29 08:00:50;;;;;;;42.72;28.23;;;11.70;99.90;;;;;;5029653;28;20037;-72
2022/10/29 08:03:16;;;;;;;42.08;27.67;;;11.80;99.90;;;;;;5030151;28;20021;-74
2022/10/29 08:05:42;;;;;;;41.40;27.92;;;11.80;99.90;;;;;;5030690;28;20508;-74
2022/10/29 08:08:08;;;;;;;45.10;28.58;;;11.90;99.90;;;;;;5030028;28;20386;-74
2022/10/29 08:10:35;;;;;;;41.95;28.65;;;12.00;99.90;;;;;;5029818;28;20140;-72
2022/10/29 08:13:03;;;;;;;48.38;27.98;;;12.00;99.90;;;;;;5030197;28;20737;-74
2022/10/29 08:15:31;;;;;;;49.13;29.55;;;11.90;99.90;;;;;;5030515;28;20025;-74
2022/10/29 08:17:56;;;;;;;65.63;34.47;;;11.90;99.90;;;;;;5027373;28;20494;-73
2022/10/29 08:20:24;;;;;;;43.50;30.48;;;11.80;99.90;;;;;;5028636;28;20029;-72
2022/10/29 08:22:50;;;;;;;50.63;29.40;;;12.00;99.90;;;;;;5013516;28;20631;-72
2022/10/29 08:25:16;;;;;;;49.17;31.77;;;12.10;99.90;;;;;;5010314;28;20097;-73
2022/10/29 08:27:43;;;;;;;44.03;30.60;;;12.20;99.90;;;;;;5015784;28;20037;-74
2022/10/29 08:30:11;;;;;;;55.85;38.42;;;12.40;99.90;;;;;;5029926;28;20052;-73
2022/10/29 08:32:44;;;;;;;55.97;37.95;;;12.50;99.90;;;;;;5031191;28;20108;-74
2022/10/29 08:35:10;;;;;;;62.08;38.50;;;12.70;99.90;;;;;;5029945;28;20021;-73
2022/10/29 08:37:43;;;;;;;66.80;37.97;;;12.70;99.90;;;;;;5028283;28;20541;-72
2022/10/29 08:40:22;;;;;;;63.35;40.42;;;12.80;99.90;;;;;;5031724;28;20037;-73
2022/10/29 08:43:12;;;;;;;67.95;43.20;;;12.90;99.90;;;;;;5045173;28;20727;-73
2022/10/29 08:45:48;;;;;;;66.97;44.10;;;12.90;99.90;;;;;;5017025;28;20396;-74
2022/10/29 08:48:34;;;;;;;74.20;43.92;;;13.10;99.90;;;;;;5030436;28;20467;-74
2022/10/29 08:51:04;;;;;;;68.22;44.75;;;13.10;99.90;;;;;;5025140;28;20090;-74
2022/10/29 08:53:38;;;;;;;68.47;45.08;;;13.20;99.90;;;;;;5036599;28;20132;-73
2022/10/29 08:56:26;;;;;;;64.25;43.03;;;13.30;99.90;;;;;;5031278;28;20073;-72
2022/10/29 08:59:13;;;;;;;60.95;43.75;;;13.40;99.90;;;;;;5034613;28;20494;-73
2022/10/29 09:01:39;;;;;;;74.75;51.65;;;13.30;99.90;;;;;;5013193;28;20140;-73
2022/10/29 09:04:28;;;;;;;81.18;52.72;;;13.40;99.90;;;;;;5013916;28;20052;-73
2022/10/29 09:07:12;;;;;;;82.68;52.40;;;13.40;99.90;;;;;;5028083;28;20037;-72
2022/10/29 09:10:06;;;;;;;68.63;48.95;;;13.50;99.90;;;;;;5027063;28;20029;-72
2022/10/29 09:12:50;;;;;;;73.43;52.42;;;13.70;99.90;;;;;;5020017;28;20168;-74
2022/10/29 09:15:50;;;;;;;69.03;49.45;;;13.80;99.90;;;;;;5031652;28;20037;-72
2022/10/29 09:18:19;;;;;;;73.90;49.40;;;13.90;99.90;;;;;;5032840;28;20030;-74
2022/10/29 09:21:14;;;;;;;66.20;50.35;;;14.00;99.90;;;;;;5028850;28;20033;-74
2022/10/29 09:24:12;;;;;;;71.93;51.60;;;14.20;99.90;;;;;;5028300;28;20116;-73
2022/10/29 09:26:57;;;;;;;334.05;206.68;;;14.40;99.90;;;;;;5033839;28;20044;-73
2022/10/29 09:29:44;;;;;;;310.88;198.35;;;14.10;99.90;;;;;;5033666;28;20100;-72
2022/10/29 09:32:21;;;;;;;270.48;166.48;;;13.90;99.90;;;;;;5032187;28;20029;-74
2022/10/29 09:34:51;;;;;;;307.52;185.40;;;13.60;99.90;;;;;;5031516;28;20029;-75
2022/10/29 09:37:26;;;;;;;355.30;214.13;;;13.60;99.90;;;;;;5033595;28;20474;-71
2022/10/29 09:39:54;;;;;;;341.38;204.48;;;13.40;99.90;;;;;;5033249;28;20076;-71
2022/10/29 09:42:30;;;;;;;284.10;174.80;;;13.30;99.90;;;;;;5033031;28;20033;-74
2022/10/29 09:45:01;;;;;;;343.40;193.50;;;13.20;99.90;;;;;;5045047;28;20025;-74
2022/10/29 09:48:03;;;;;;;273.10;161.52;;;13.00;99.90;;;;;;5053555;28;20028;-74
2022/10/29 09:50:38;;;;;;;246.50;139.93;;;13.10;99.90;;;;;;5042724;28;20034;-73
2022/10/29 09:53:06;;;;;;;203.23;117.78;;;12.80;99.90;;;;;;5031988;28;20358;-73
2022/10/29 09:55:42;;;;;;;173.45;99.72;;;12.90;99.90;;;;;;5030109;28;20057;-71
2022/10/29 09:58:22;;;;;;;176.50;98.70;;;12.80;99.90;;;;;;5012839;28;20060;-73
2022/10/29 10:00:49;;;;;;;182.02;97.13;;;12.90;99.90;;;;;;5012655;28;20033;-74
2022/10/29 10:03:40;;;;;;;175.70;97.63;;;13.10;99.90;;;;;;5015132;28;20014;-73
2022/10/29 10:06:11;;;;;;;187.15;102.05;;;13.20;99.90;;;;;;5020072;28;20026;-78
2022/10/29 10:09:04;;;;;;;192.77;100.78;;;13.30;99.90;;;;;;5019821;28;20049;-73
2022/10/29 10:11:39;;;;;;;170.13;90.63;;;13.30;99.90;;;;;;5011859;28;20045;-72
2022/10/29 10:14:21;;;;;;;162.98;91.32;;;13.50;99.90;;;;;;5013769;28;20061;-72
2022/10/29 10:16:59;;;;;;;187.90;90.30;;;13.30;99.90;;;;;;5021375;28;20043;-72
2022/10/29 10:19:29;;;;;;;171.18;81.53;;;13.10;99.90;;;;;;5020928;28;20025;-71
2022/10/29 10:22:00;;;;;;;170.40;86.57;;;12.80;99.90;;;;;;5015754;28;20373;-72
2022/10/29 10:24:32;;;;;;;179.70;84.50;;;13.00;99.90;;;;;;5016441;28;20037;-73
2022/10/29 10:26:58;;;;;;;141.23;80.23;;;13.10;99.90;;;;;;5019885;28;20075;-71
2022/10/29 10:29:25;;;;;;;132.25;73.68;;;13.10;99.90;;;;;;5015793;28;20278;-73
2022/10/29 10:31:57;;;;;;;126.68;72.25;;;13.30;99.90;;;;;;5015939;28;20034;-72
2022/10/29 10:34:33;;;;;;;103.43;64.93;;;13.50;99.90;;;;;;5035835;28;20036;-73
2022/10/29 10:37:02;;;;;;;107.53;64.45;;;13.70;99.90;;;;;;5015551;28;20068;-73
2022/10/29 10:39:41;;;;;;;89.22;53.88;;;14.00;99.90;;;;;;5010513;28;20083;-74
2022/10/29 10:42:21;;;;;;;99.72;56.53;;;14.00;99.90;;;;;;5009838;28;20026;-74
2022/10/29 10:44:59;;;;;;;111.22;62.63;;;14.60;99.90;;;;;;5011228;28;20018;-73
2022/10/29 10:47:35;;;;;;;106.10;59.25;;;14.50;99.90;;;;;;5014727;28;20092;-72
2022/10/29 10:50:23;;;;;;;103.88;60.97;;;14.30;99.90;;;;;;5012122;28;20430;-73
2022/10/29 10:52:53;;;;;;;101.53;61.70;;;14.30;99.90;;;;;;5019183;28;20038;-72
2022/10/29 10:55:52;;;;;;;107.70;62.78;;;14.30;99.90;;;;;;5018701;28;20053;-71
2022/10/29 10:58:45;;;;;;;103.47;60.10;;;14.50;99.90;;;;;;5023080;28;20065;-79
2022/10/29 11:01:19;;;;;;;97.07;55.67;;;14.70;99.90;;;;;;5022852;28;20501;-72
2022/10/29 11:03:59;;;;;;;82.13;53.65;;;14.60;99.90;;;;;;5017792;28;20476;-75
2022/10/29 11:06:30;;;;;;;78.55;52.25;;;14.70;99.90;;;;;;5011339;28;20026;-73
2022/10/29 11:09:21;;;;;;;74.60;48.80;;;14.80;99.90;;;;;;5012236;28;20141;-76
2022/10/29 11:11:59;;;;;;;64.10;42.30;;;14.90;99.90;;;;;;5010298;28;20046;-72
2022/10/29 11:14:45;;;;;;;59.45;41.00;;;14.90;99.90;;;;;;5015511;28;20054;-72
2022/10/29 11:17:37;;;;;;;60.92;40.70;;;14.90;99.90;;;;;;5028587;28;20061;-71
2022/10/29 11:20:17;;;;;;;53.75;37.78;;;15.00;99.90;;;;;;5026190;28;20033;-72
2022/10/29 11:23:05;;;;;;;55.47;36.15;;;15.00;99.90;;;;;;5016066;28;20037;-72
2022/10/29 11:25:41;;;;;;;50.78;37.83;;;15.10;99.90;;;;;;5015627;28;20037;-72
2022/10/29 11:28:20;;;;;;;58.08;37.38;;;14.80;99.90;;;;;;5016891;28;20093;-71
2022/10/29 11:30:53;;;;;;;54.83;37.42;;;15.10;99.90;;;;;;5013684;28;20060;-71
2022/10/29 11:33:40;;;;;;;54.88;37.60;;;15.30;99.90;;;;;;5016747;28;20183;-71
2022/10/29 11:36:19;;;;;;;59.45;40.22;;;15.10;99.90;;;;;;5015338;28;20033;-71
2022/10/29 11:38:58;;;;;;;66.93;40.60;;;15.20;99.90;;;;;;5013187;28;20045;-72
2022/10/29 11:41:39;;;;;;;55.78;37.38;;;15.20;99.90;;;;;;5013232;28;20037;-72
2022/10/29 11:44:13;;;;;;;61.13;34.72;;;15.30;99.90;;;;;;5016463;28;20434;-71
2022/10/29 11:47:11;;;;;;;58.28;35.60;;;15.20;99.90;;;;;;5013292;28;20488;-74
2022/10/29 11:50:04;;;;;;;57.95;33.17;;;15.20;99.90;;;;;;4969026;28;20050;-73
2022/10/29 11:52:40;;;;;;;58.55;36.55;;;15.20;99.90;;;;;;4971379;28;20046;-73
2022/10/29 11:55:06;;;;;;;57.58;38.47;;;15.30;99.90;;;;;;4971795;28;20169;-74
2022/10/29 11:57:43;;;;;;;57.53;39.28;;;15.40;99.90;;;;;;4969003;28;20113;-75
2022/10/29 12:00:17;;;;;;;57.65;38.38;;;15.30;99.90;;;;;;4969049;28;20051;-74
2022/10/29 12:03:05;;;;;;;52.65;37.25;;;15.50;99.90;;;;;;4970474;28;20034;-73
2022/10/29 12:05:40;;;;;;;54.10;36.10;;;15.50;99.90;;;;;;4968416;28;20049;-76
2022/10/29 12:08:36;;;;;;;52.80;36.97;;;15.60;99.90;;;;;;4975157;28;20052;-73
2022/10/29 12:11:19;;;;;;;56.40;37.22;;;15.70;99.90;;;;;;4988731;28;20508;-76
2022/10/29 12:13:48;;;;;;;;;;;15.80;99.90;;;;;;4985570;28;20090;-73
2022/10/29 12:16:40;;;;;;;56.10;39.33;;;15.80;99.90;;;;;;4988201;28;20000;-74
2022/10/29 12:19:14;;;;;;;62.55;40.72;;;15.90;99.90;;;;;;4985741;28;20073;-71
2022/10/29 12:21:43;;;;;;;55.03;34.72;;;16.00;99.90;;;;;;4973529;28;20047;-72
2022/10/29 12:24:44;;;;;;;55.67;34.92;;;16.10;99.90;;;;;;4972802;28;20912;-75
2022/10/29 12:27:38;;;;;;;52.40;35.60;;;16.20;99.90;;;;;;4982568;28;20038;-73
2022/10/29 12:30:07;;;;;;;55.20;37.92;;;16.30;99.90;;;;;;4898808;29;20048;-72
2022/10/29 12:32:39;;;;;;;60.75;38.92;;;16.40;99.90;;;;;;4904594;29;20115;-70
2022/10/29 12:35:18;;;;;;;54.35;38.38;;;16.50;99.90;;;;;;4909368;29;20036;-72
2022/10/29 12:38:09;;;;;;;57.20;38.15;;;16.60;99.90;;;;;;4910242;29;20071;-73
2022/10/29 12:40:38;;;;;;;58.53;40.10;;;16.60;99.90;;;;;;4910362;29;20048;-71
2022/10/29 12:43:10;;;;;;;53.80;36.83;;;16.60;99.90;;;;;;4910006;29;20044;-70
2022/10/29 12:45:50;;;;;;;51.90;36.45;;;16.70;99.90;;;;;;4910081;29;20194;-71
2022/10/29 12:48:45;;;;;;;59.17;36.60;;;16.80;99.90;;;;;;4908990;29;20036;-71
2022/10/29 12:51:16;;;;;;;53.03;34.72;;;16.90;99.90;;;;;;4911529;29;20112;-81